首页
METAR-TAF:

METAR-TAF

机场 :

Middleton Field

Evergreen, 阿拉巴马州, 美国

纬度: 31-25-08N, 经度: 087-02-53W, 海拔: 78米

当前天气观测

该预报发布于17分钟前的23:36 UTC
风速10节,风向东转东南
温度 22°C
湿度 94%
气压 1012 hPa
能見度: 2.8公里
少量云层高于2300英尺
多云层高于4000英尺
阴天层高于6500英尺
雷暴, 大雨, 轻雾

METAR: KGZH 262336Z AUTO 11010KT 1 3/4SM +TSRA BR FEW023 BKN040 OVC065 22/21 A2988 RMK AO2 LTG DSNT NE-S PRESFR P0052 T02220206

时间: 18:53 (23:53 UTC)


TAF: 丢失

超过4000个机场的气象观测和天气预报(METAR&TAF报告)。

可查询的气象台以黄色和红色小点在地图上表示。

将鼠标移到小点上方,可查看气象台名称。

然后点击查看天气观测和预报。

如需切换地图:点击带黑十字的绿色按钮放大地图;点击带横线的绿色按钮缩小地图;或者点击绿色箭头查看邻近地区的地图。


METAR-TAF: